GOBD Airport Information

Runway Information
Runway 01 Length 11483 ft width 197 ft
Elevation 272 ft Threshold 394 ft Heading 359
Runway 19 Length 11483 ft Width 197 ft
Elevation 251 ft Threshold 394 ft Heading 179
Airport Frequencies
Airport Navaids
Airport Weather Information & NOTAM
ADDS - METARS form results

(0843 UTC 27 June 2022)
Data provider http://aviationweather.gov/metar/data/
 
METAR text: GOBD 270830Z 32007KT 7000 NSC 26/24 Q1013 NOSIG
Conditions at: GOBD (DAKAR/DIAGNE , SN) observed 0830 UTC 27 June 2022
Temperature: 26.0°C (79°F)
Dewpoint: 24.0°C (75°F) [RH = 89%]
Pressure (altimeter): 29.91 inches Hg (1013.0 mb)
Winds: from the NW (320 degrees) at 8 MPH (7 knots; 3.6 m/s)
Visibility: 4 miles ( 7 km)
Ceiling: at least 12,000 feet AGL
Clouds: sky clear below 12,000 feet AGL
Weather: no significant weather observed at this time

METAR text: GOBD 270800Z 31005KT 7000 NSC 25/24 Q1012 NOSIG
Conditions at: GOBD (DAKAR/DIAGNE , SN) observed 0800 UTC 27 June 2022
Temperature: 25.0°C (77°F)
Dewpoint: 24.0°C (75°F) [RH = 94%]
Pressure (altimeter): 29.88 inches Hg (1012.0 mb)
Winds: from the NW (310 degrees) at 6 MPH (5 knots; 2.6 m/s)
Visibility: 4 miles ( 7 km)
Ceiling: at least 12,000 feet AGL
Clouds: sky clear below 12,000 feet AGL
Weather: no significant weather observed at this time

Forecast for: GOBD (DAKAR/DIAGNE , SN)
Text: TAF GOBD 270500Z 2706/2812 32010KT 9999 SCT013
Forecast period: 0600 UTC 27 June 2022 to 1200 UTC 28 June 2022
Forecast type: FROM: standard forecast or significant change
Winds: from the NW (320 degrees) at 12 MPH (10 knots; 5.1 m/s)
Visibility: 6 or more miles (10+ km)
Ceiling: at least 12,000 feet AGL
Clouds: scattered clouds at 1300 feet AGL
Weather: no significant weather forecast for this period